Station Historical Data
Daily Summary for February 14, 2018 Units:  Metric    English   Both
« Previous Day
Next Day »
Daily Weekly Monthly Yearly Custom
  High: Low: Average:
Temperature: -17.8 °C 12.7 °C 14.2 °C
Dew Point: -17.8 °C 11.9 °C 13.7 °C
Humidity: Humidity % 94 % 97 %
Wind Speed: 0 km/h 0 km/h 5.1 km/h
Wind Gust: 0 km/h - -
Wind:- - SSW
Pressure: 0 hPa 1020.5 hPa -
Precipitation: 13.21 mm    
Historical Graphs
 
 
Tabular Data for February 14, 2018
Time Temperature Dew Point Pressure Wind Wind Speed Wind Gust Humidity Rainfall Rate (Hourly) solar Conditions
-17.8 °C -17.8 °C 0 hPa Calm     Humidity % 0 mm SolarRadiationWatts/m^2 W/m2 Conditions
00:05 12.8 °C 12 °C 1030.4 hPa SSE 3.7 km/h 3.7 km/h 95 % 0 mm 0.0 W/m2 RA
00:10 12.7 °C 11.9 °C 1030.4 hPa Calm     95 % 0 mm 0.0 W/m2 OVC
00:15 12.7 °C 11.9 °C 1030.4 hPa South 1.9 km/h 1.9 km/h 95 % 0 mm 0.0 W/m2 OVC
00:19 12.7 °C 12.1 °C 1030.4 hPa South 3.7 km/h   96 % 0 mm 0.0 W/m2 OVC
00:25 12.7 °C 12.1 °C 1030.4 hPa South 1.9 km/h 1.9 km/h 96 % 0 mm 0.0 W/m2 OVC
00:29 12.7 °C 12.1 °C 1030 hPa Calm     96 % 0 mm 0.0 W/m2 OVC
00:34 12.7 °C 12.1 °C 1030.4 hPa Calm     96 % 0 mm 0.0 W/m2 OVC
00:40 12.7 °C 12.1 °C 1030.4 hPa South 1.9 km/h 1.9 km/h 96 % 0 mm 0.0 W/m2 OVC
00:45 12.8 °C 12.2 °C 1030 hPa South 1.9 km/h   96 % 0 mm 0.0 W/m2 OVC
00:50 12.7 °C 12.1 °C 1030.4 hPa South 3.7 km/h 3.7 km/h 96 % 0 mm 0.0 W/m2 OVC
00:55 12.7 °C 12.1 °C 1030.4 hPa South 1.9 km/h 1.9 km/h 96 % 0 mm 0.0 W/m2 OVC
01:00 12.8 °C 12.2 °C 1030.4 hPa South 1.9 km/h 1.9 km/h 96 % 0 mm 0.0 W/m2 OVC
01:05 12.8 °C 12.2 °C 1030.4 hPa South 1.9 km/h   96 % 0 mm 0.0 W/m2 -RA
01:10 12.8 °C 12.2 °C 1030.4 hPa SSE 1.9 km/h   96 % 0 mm 0.0 W/m2 -RA
01:15 12.9 °C 12.4 °C 1030.4 hPa SSE 5.6 km/h 5.6 km/h 97 % 0 mm 0.0 W/m2 -RA
01:20 12.9 °C 12.3 °C 1030 hPa South 3.7 km/h 3.7 km/h 96 % 0.25 mm 0.0 W/m2 -RA
01:25 12.9 °C 12.3 °C 1030 hPa Calm     96 % 0.25 mm 0.0 W/m2 -RA
01:30 12.9 °C 12.5 °C 1030 hPa SSE 1.9 km/h 1.9 km/h 97 % 0.25 mm 0.0 W/m2 -RA
01:35 12.9 °C 12.5 °C 1030 hPa Calm     97 % 0.51 mm 0.0 W/m2 -RA
01:40 12.9 °C 12.4 °C 1030 hPa SSE 9.3 km/h 9.3 km/h 97 % 0.51 mm 0.0 W/m2 -RA
01:45 12.9 °C 12.4 °C 1030 hPa South 1.9 km/h 1.9 km/h 97 % 0.51 mm 0.0 W/m2 -RA
01:50 12.9 °C 12.4 °C 1030 hPa SSE 3.7 km/h 3.7 km/h 97 % 0.51 mm 0.0 W/m2 -RA
01:55 12.9 °C 12.4 °C 1030 hPa South 1.9 km/h 1.9 km/h 97 % 0.76 mm 0.0 W/m2 -RA
02:00 12.9 °C 12.4 °C 1029.7 hPa South 3.7 km/h 3.7 km/h 97 % 0.76 mm 0.0 W/m2 -RA
02:05 12.9 °C 12.4 °C 1029.7 hPa South 5.6 km/h 5.6 km/h 97 % 1.27 mm 0.0 W/m2 -RA
02:10 12.9 °C 12.4 °C 1029.7 hPa South 3.7 km/h 3.7 km/h 97 % 1.27 mm 0.0 W/m2 -RA
02:15 12.9 °C 12.5 °C 1029.7 hPa SSE 5.6 km/h 5.6 km/h 97 % 1.27 mm 0.0 W/m2 -RA
02:20 12.9 °C 12.5 °C 1029.3 hPa SSE 5.6 km/h 5.6 km/h 97 % 1.27 mm 0.0 W/m2 -RA
02:25 12.9 °C 12.5 °C 1029.3 hPa SSE 1.9 km/h   97 % 1.27 mm 0.0 W/m2 -RA
02:30 12.9 °C 12.4 °C 1029.3 hPa Calm     97 % 1.52 mm 0.0 W/m2 -RA
02:35 12.9 °C 12.4 °C 1029.3 hPa Calm     97 % 1.52 mm 0.0 W/m2 -RA
02:40 12.8 °C 12.4 °C 1029.3 hPa SSE 1.9 km/h 1.9 km/h 97 % 1.78 mm 0.0 W/m2 -RA
02:45 12.8 °C 12.5 °C 1029.3 hPa Calm     98 % 2.03 mm 0.0 W/m2 -RA
02:50 12.9 °C 12.6 °C 1029 hPa SSE 3.7 km/h 3.7 km/h 98 % 2.29 mm 0.0 W/m2 -RA
02:55 12.8 °C 12.5 °C 1029 hPa Calm     98 % 2.03 mm 0.0 W/m2 -RA
03:00 12.8 °C 12.5 °C 1029 hPa Calm     98 % 1.78 mm 0.0 W/m2 -RA
03:05 12.9 °C 12.6 °C 1029 hPa Calm     98 % 1.52 mm 0.0 W/m2 -RA
03:10 12.8 °C 12.5 °C 1029 hPa Calm     98 % 1.78 mm 0.0 W/m2 -RA
03:15 12.8 °C 12.5 °C 1029 hPa SSE 3.7 km/h 3.7 km/h 98 % 2.03 mm 0.0 W/m2 -RA
03:20 12.8 °C 12.5 °C 1029 hPa Calm     98 % 1.78 mm 0.0 W/m2 -RA
03:25 12.8 °C 12.5 °C 1029 hPa Calm     98 % 1.78 mm 0.0 W/m2 -RA
03:30 12.8 °C 12.5 °C 1029 hPa Calm     98 % 1.52 mm 0.0 W/m2 -RA
03:35 12.8 °C 12.5 °C 1029 hPa SSE 1.9 km/h 1.9 km/h 98 % 1.52 mm 0.0 W/m2 -RA
03:40 12.9 °C 12.6 °C 1029 hPa SSE 3.7 km/h 3.7 km/h 98 % 1.27 mm 0.0 W/m2 -RA
03:45 12.9 °C 12.6 °C 1029 hPa Calm     98 % 1.02 mm 0.0 W/m2 -RA
03:50 12.9 °C 12.6 °C 1029 hPa South 1.9 km/h 1.9 km/h 98 % 0.76 mm 0.0 W/m2 -RA
03:55 12.9 °C 12.6 °C 1029 hPa Calm     98 % 0.76 mm 0.0 W/m2 -RA
04:00 12.9 °C 12.6 °C 1028.7 hPa SSE 5.6 km/h 5.6 km/h 98 % 0.76 mm 0.0 W/m2 -RA
04:05 12.8 °C 12.5 °C 1028.7 hPa South 1.9 km/h   98 % 0.76 mm 0.0 W/m2 -RA
04:10 12.8 °C 12.5 °C 1028.7 hPa South 3.7 km/h 3.7 km/h 98 % 0.76 mm 0.0 W/m2 -RA
04:15 12.9 °C 12.6 °C 1028.7 hPa South 5.6 km/h 5.6 km/h 98 % 0.76 mm 0.0 W/m2 -RA
04:20 12.9 °C 12.6 °C 1028.7 hPa South 3.7 km/h 3.7 km/h 98 % 0.76 mm 0.0 W/m2 -RA
04:25 12.8 °C 12.5 °C 1028.3 hPa SSE 6.4 km/h 6.4 km/h 98 % 1.02 mm 0.0 W/m2 -RA
04:26 12.9 °C 12.6 °C 1028.3 hPa SSE 5.6 km/h 5.6 km/h 98 % 1.02 mm 0.0 W/m2 -RA
04:31 12.8 °C 12.5 °C 1028.3 hPa SSE 8 km/h 8 km/h 98 % 1.27 mm 0.0 W/m2 -RA
04:36 12.9 °C 12.6 °C 1028.3 hPa SSE 5.6 km/h 5.6 km/h 98 % 1.02 mm 0.0 W/m2 -RA
04:41 12.9 °C 12.6 °C 1028.3 hPa SSE 5.6 km/h 5.6 km/h 98 % 1.02 mm 0.0 W/m2 -RA
04:46 12.9 °C 12.6 °C 1028.3 hPa SSE 3.7 km/h 3.7 km/h 98 % 1.02 mm 0.0 W/m2 -RA
04:51 12.9 °C 12.6 °C 1028.3 hPa SSE 3.7 km/h 3.7 km/h 98 % 1.02 mm 0.0 W/m2 -RA
04:56 13 °C 12.7 °C 1028.3 hPa NW 3.7 km/h 3.7 km/h 98 % 1.02 mm 0.0 W/m2 -RA
05:01 13 °C 12.7 °C 1028.3 hPa SSE 5.6 km/h 5.6 km/h 98 % 1.02 mm 0.0 W/m2 OVC
05:06 13.1 °C 12.7 °C 1028.3 hPa SSE 3.2 km/h 3.2 km/h 98 % 1.02 mm 0.0 W/m2 OVC
05:11 13 °C 12.7 °C 1028 hPa SSE 3.7 km/h 3.7 km/h 98 % 0.76 mm 0.0 W/m2 OVC
05:16 13 °C 12.7 °C 1028.3 hPa SSE 5.6 km/h 5.6 km/h 98 % 0.51 mm 0.0 W/m2 OVC
05:21 13 °C 12.7 °C 1028 hPa SSE 5.6 km/h 5.6 km/h 98 % 0.25 mm 0.0 W/m2 OVC
05:26 12.9 °C 12.6 °C 1028.3 hPa South 5.6 km/h 5.6 km/h 98 % 0.25 mm 0.0 W/m2 OVC
05:31 12.9 °C 12.6 °C 1028.3 hPa South 5.6 km/h 5.6 km/h 98 % 0 mm 0.0 W/m2 OVC
05:36 12.9 °C 12.6 °C 1028.3 hPa South 7.4 km/h 7.4 km/h 98 % 0 mm 0.0 W/m2 OVC
05:41 12.9 °C 12.6 °C 1028.3 hPa SSE 1.9 km/h 1.9 km/h 98 % 0 mm 0.0 W/m2 OVC
05:46 13 °C 12.7 °C 1028.3 hPa SSE 3.7 km/h 3.7 km/h 98 % 0 mm 0.0 W/m2 OVC
05:51 12.9 °C 12.6 °C 1028 hPa SSE 8 km/h 8 km/h 98 % 0 mm 0.0 W/m2 OVC
05:56 13 °C 12.7 °C 1028 hPa SSE 5.6 km/h 5.6 km/h 98 % 0 mm 0.0 W/m2 OVC
06:01 13 °C 12.7 °C 1028.3 hPa South 3.7 km/h 3.7 km/h 98 % 0 mm 0.0 W/m2 OVC
06:06 12.9 °C 12.6 °C 1028 hPa Calm     98 % 0 mm 0.0 W/m2 OVC
06:11 12.9 °C 12.6 °C 1028 hPa SSE 5.6 km/h 5.6 km/h 98 % 0 mm 0.0 W/m2 OVC
06:16 12.9 °C 12.6 °C 1028 hPa SSE 5.6 km/h 5.6 km/h 98 % 0 mm 0.0 W/m2 OVC
06:21 13 °C 12.7 °C 1028 hPa SSE 6.4 km/h 6.4 km/h 98 % 0 mm 0.0 W/m2 OVC
06:26 13 °C 12.7 °C 1028 hPa SE 5.6 km/h 5.6 km/h 98 % 0 mm 0.0 W/m2 OVC
06:31 13 °C 12.7 °C 1028 hPa WSW 3.7 km/h 3.7 km/h 98 % 0 mm 0.0 W/m2 OVC
06:36 13 °C 12.7 °C 1028.3 hPa WNW 3.7 km/h 3.7 km/h 98 % 0 mm 0.0 W/m2 OVC
06:41 13 °C 12.7 °C 1028.3 hPa SW 3.7 km/h 3.7 km/h 98 % 0 mm 0.0 W/m2 OVC
06:46 13 °C 12.7 °C 1028.7 hPa SW 3.7 km/h 3.7 km/h 98 % 0 mm 0.0 W/m2 OVC
06:51 13 °C 12.7 °C 1028.3 hPa Calm     98 % 0 mm 0.0 W/m2 OVC
06:56 12.9 °C 12.6 °C 1028.3 hPa South 1.9 km/h 1.9 km/h 98 % 0 mm 0.0 W/m2 OVC
07:01 12.9 °C 12.6 °C 1028.3 hPa SSW 1.9 km/h   98 % 0 mm 7.0 W/m2 OVC
07:06 12.9 °C 12.6 °C 1028.7 hPa Calm     98 % 0 mm 11.0 W/m2 OVC
07:11 12.9 °C 12.6 °C 1028.7 hPa Calm     98 % 0 mm 14.0 W/m2 OVC
07:16 13 °C 12.7 °C 1028.7 hPa SSW 1.6 km/h 1.6 km/h 98 % 0 mm 16.0 W/m2 OVC
07:21 13 °C 12.7 °C 1028.3 hPa SW 3.2 km/h 3.2 km/h 98 % 0 mm 40.0 W/m2 OVC
07:26 13.1 °C 12.7 °C 1028.3 hPa South 1.9 km/h 1.9 km/h 98 % 0 mm 37.0 W/m2 OVC
07:31 13.1 °C 12.7 °C 1028.7 hPa SSE 4.8 km/h 4.8 km/h 98 % 0 mm 32.0 W/m2 OVC
07:36 13.1 °C 12.7 °C 1028.7 hPa Calm     98 % 0 mm 39.0 W/m2 OVC
07:41 13.1 °C 12.8 °C 1028.7 hPa WNW 4.8 km/h 4.8 km/h 98 % 0 mm 47.0 W/m2 OVC
07:46 13.1 °C 12.8 °C 1028.7 hPa West 9.3 km/h 9.3 km/h 98 % 0 mm 42.0 W/m2 OVC
07:51 13.2 °C 12.8 °C 1028.7 hPa SSE 3.2 km/h 3.2 km/h 98 % 0 mm 35.0 W/m2 OVC
07:56 13.2 °C 12.8 °C 1028.7 hPa East 5.6 km/h 5.6 km/h 98 % 0 mm 30.0 W/m2 OVC
08:01 13.1 °C 12.7 °C 1028.7 hPa West 5.6 km/h 5.6 km/h 97 % 0 mm 25.0 W/m2 OVC
08:06 13.1 °C 12.6 °C 1028.7 hPa WSW 9.3 km/h 9.3 km/h 97 % 0 mm 33.0 W/m2 OVC
08:11 13.1 °C 12.6 °C 1028.7 hPa NE 4.8 km/h 4.8 km/h 97 % 0.25 mm 40.0 W/m2 RA
08:16 13.1 °C 12.6 °C 1028.3 hPa SSE 9.3 km/h 9.3 km/h 97 % 0.51 mm 62.0 W/m2 RA
08:21 13.1 °C 12.7 °C 1028.3 hPa NW 7.4 km/h 7.4 km/h 97 % 0.51 mm 62.0 W/m2 RA
08:26 13.1 °C 12.7 °C 1028.3 hPa SSW 11.1 km/h 11.1 km/h 97 % 0.51 mm 60.0 W/m2 OVC
08:31 13.2 °C 12.7 °C 1028.3 hPa West 3.7 km/h 3.7 km/h 97 % 0.76 mm 53.0 W/m2 RA
08:36 13.2 °C 12.7 °C 1028.7 hPa NNW 1.9 km/h   97 % 0.76 mm 42.0 W/m2 RA
08:41 13.2 °C 12.7 °C 1028.7 hPa SE 3.7 km/h 3.7 km/h 97 % 0.76 mm 49.0 W/m2 OVC
08:46 13.2 °C 12.7 °C 1028.7 hPa West 5.6 km/h 5.6 km/h 97 % 0.76 mm 47.0 W/m2 OVC
08:51 13.2 °C 12.7 °C 1028.7 hPa West 5.6 km/h 5.6 km/h 97 % 0.76 mm 67.0 W/m2 OVC
08:56 13.2 °C 12.7 °C 1028.7 hPa SW 5.6 km/h 5.6 km/h 97 % 0.76 mm 65.0 W/m2 OVC
09:01 13.2 °C 12.8 °C 1028.7 hPa West 3.7 km/h 3.7 km/h 97 % 0.76 mm 69.0 W/m2 OVC
09:06 13.2 °C 12.8 °C 1028.7 hPa WNW 3.7 km/h 3.7 km/h 97 % 0.76 mm 49.0 W/m2 OVC
09:11 13.2 °C 12.7 °C 1028.7 hPa SSE 7.4 km/h 7.4 km/h 97 % 0.51 mm 51.0 W/m2 OVC
09:16 13.2 °C 12.7 °C 1028.7 hPa SSE 5.6 km/h 5.6 km/h 97 % 0.51 mm 72.0 W/m2 RA
09:21 13.2 °C 12.7 °C 1028.7 hPa SW 11.1 km/h 11.1 km/h 97 % 0.76 mm 70.0 W/m2 RA
09:26 13.2 °C 12.8 °C 1028.3 hPa NW 7.4 km/h 7.4 km/h 97 % 0.76 mm 86.0 W/m2 RA
09:31 13.2 °C 12.8 °C 1028.3 hPa South 7.4 km/h 7.4 km/h 97 % 0.51 mm 104.0 W/m2 OVC
09:36 13.3 °C 12.8 °C 1028.3 hPa SSE 7.4 km/h 7.4 km/h 97 % 0.51 mm 81.0 W/m2 OVC
09:41 13.3 °C 12.9 °C 1028 hPa WNW 3.7 km/h 3.7 km/h 97 % 0.51 mm 54.0 W/m2 OVC
09:46 13.3 °C 12.9 °C 1028 hPa SSW 5.6 km/h 5.6 km/h 97 % 0.51 mm 53.0 W/m2 OVC
09:51 13.4 °C 12.9 °C 1028 hPa West 6.4 km/h 6.4 km/h 97 % 0.51 mm 63.0 W/m2 OVC
09:56 13.4 °C 12.9 °C 1028 hPa South 7.4 km/h 7.4 km/h 97 % 0.51 mm 95.0 W/m2 OVC
10:01 13.5 °C 13.1 °C 1028 hPa South 1.9 km/h 1.9 km/h 97 % 0.51 mm 132.0 W/m2 OVC
10:06 13.6 °C 13.2 °C 1028 hPa SW 4.8 km/h 4.8 km/h 97 % 0.51 mm 107.0 W/m2 OVC
10:11 13.7 °C 13.3 °C 1028 hPa SSE 8 km/h 8 km/h 97 % 0.51 mm 95.0 W/m2 OVC
10:16 13.8 °C 13.3 °C 1028 hPa SSE 3.7 km/h 3.7 km/h 97 % 0.25 mm 149.0 W/m2 OVC
10:21 13.9 °C 13.4 °C 1028 hPa SSE 5.6 km/h 5.6 km/h 97 % 0 mm 130.0 W/m2 OVC
10:26 14.1 °C 13.6 °C 1027.7 hPa SSE 3.7 km/h 3.7 km/h 97 % 0 mm 134.0 W/m2 OVC
10:31 14.2 °C 13.7 °C 1027.7 hPa South 1.9 km/h 1.9 km/h 97 % 0 mm 125.0 W/m2 OVC
10:36 14.2 °C 13.7 °C 1027.7 hPa SSE 6.4 km/h 6.4 km/h 97 % 0 mm 109.0 W/m2 OVC
10:41 14.3 °C 13.8 °C 1027.7 hPa WSW 5.6 km/h 5.6 km/h 97 % 0 mm 77.0 W/m2 OVC
10:46 14.3 °C 13.8 °C 1027.7 hPa SE 3.7 km/h 3.7 km/h 97 % 0 mm 51.0 W/m2 OVC
10:51 14.3 °C 13.8 °C 1027.7 hPa South 5.6 km/h 5.6 km/h 97 % 0 mm 93.0 W/m2 OVC
10:56 14.4 °C 13.9 °C 1027.7 hPa South 5.6 km/h 5.6 km/h 97 % 0 mm 118.0 W/m2 OVC
11:01 14.6 °C 14.1 °C 1027.3 hPa WNW 3.7 km/h 3.7 km/h 97 % 0 mm 118.0 W/m2 OVC
11:06 14.7 °C 14.2 °C 1027.3 hPa ENE 3.7 km/h 3.7 km/h 97 % 0 mm 116.0 W/m2 OVC
11:11 14.8 °C 14.2 °C 1027 hPa SW 5.6 km/h 5.6 km/h 96 % 0 mm 107.0 W/m2 OVC
11:16 14.9 °C 14.3 °C 1027 hPa SSE 5.6 km/h 5.6 km/h 96 % 0 mm 107.0 W/m2 OVC
11:21 15 °C 14.4 °C 1027 hPa SE 6.4 km/h 6.4 km/h 96 % 0 mm 130.0 W/m2 OVC
11:26 15.1 °C 14.4 °C 1026.6 hPa SSE 13 km/h 13 km/h 96 % 0 mm 227.0 W/m2 OVC
11:31 15.3 °C 14.7 °C 1026.6 hPa East 5.6 km/h 5.6 km/h 96 % 0 mm 223.0 W/m2 OVC
11:36 15.3 °C 14.6 °C 1026.6 hPa SSE 9.3 km/h 9.3 km/h 95 % 0 mm 188.0 W/m2 OVC
11:41 15.4 °C 14.6 °C 1026.3 hPa SSE 8 km/h 8 km/h 95 % 0 mm 179.0 W/m2 OVC
11:46 15.4 °C 14.4 °C 1026.3 hPa NE 7.4 km/h 7.4 km/h 94 % 0 mm 221.0 W/m2 OVC
11:51 15.5 °C 14.6 °C 1026 hPa NW 5.6 km/h 5.6 km/h 94 % 0 mm 149.0 W/m2 OVC
11:56 15.5 °C 14.6 °C 1026 hPa SE 5.6 km/h 5.6 km/h 94 % 0 mm 135.0 W/m2 OVC
12:01 15.5 °C 14.6 °C 1026 hPa SSE 5.6 km/h 5.6 km/h 94 % 0 mm 142.0 W/m2 OVC
12:06 15.5 °C 14.6 °C 1026 hPa SSE 11.1 km/h 11.1 km/h 94 % 0 mm 88.0 W/m2 OVC
12:11 15.5 °C 14.6 °C 1026 hPa SW 7.4 km/h 7.4 km/h 94 % 0 mm 107.0 W/m2 OVC
12:16 15.5 °C 14.6 °C 1026 hPa West 3.7 km/h 3.7 km/h 94 % 0 mm 72.0 W/m2 OVC
12:21 15.4 °C 14.5 °C 1026 hPa NW 11.1 km/h 11.1 km/h 94 % 0 mm 56.0 W/m2 OVC
12:26 15.4 °C 14.4 °C 1025.6 hPa West 9.7 km/h 9.7 km/h 94 % 0 mm 67.0 W/m2 OVC
12:31 15.4 °C 14.4 °C 1025.6 hPa SE 6.4 km/h 6.4 km/h 94 % 0 mm 83.0 W/m2 OVC
12:36 15.4 °C 14.4 °C 1025.6 hPa SSE 14.8 km/h 14.8 km/h 94 % 0 mm 84.0 W/m2 OVC
12:41 15.4 °C 14.4 °C 1025.3 hPa West 7.4 km/h 7.4 km/h 94 % 0.25 mm 88.0 W/m2 RA
12:46 15.4 °C 14.5 °C 1025.3 hPa SSW 5.6 km/h 5.6 km/h 94 % 0.25 mm 81.0 W/m2 RA
12:51 15.4 °C 14.4 °C 1025.3 hPa SSE 8 km/h 8 km/h 94 % 0.25 mm 54.0 W/m2 OVC
12:56 15.3 °C 14.4 °C 1025.3 hPa WNW 7.4 km/h 7.4 km/h 94 % 0.25 mm 54.0 W/m2 OVC
13:01 15.3 °C 14.5 °C 1025.3 hPa West 4.8 km/h 4.8 km/h 95 % 0.25 mm 25.0 W/m2 OVC
13:06 15.2 °C 14.4 °C 1025.3 hPa WSW 3.7 km/h 3.7 km/h 95 % 0.25 mm 23.0 W/m2 OVC
13:11 15.1 °C 14.3 °C 1024.9 hPa South 1.9 km/h 1.9 km/h 95 % 0.25 mm 30.0 W/m2 OVC
13:16 15 °C 14.4 °C 1024.9 hPa SSE 3.7 km/h 3.7 km/h 96 % 0.25 mm 32.0 W/m2 OVC
13:21 15 °C 14.4 °C 1024.9 hPa West 1.9 km/h   96 % 0.25 mm 46.0 W/m2 OVC
13:26 15 °C 14.4 °C 1024.9 hPa South 5.6 km/h 5.6 km/h 96 % 0.25 mm 42.0 W/m2 OVC
13:31 14.9 °C 14.3 °C 1024.9 hPa SSE 5.6 km/h 5.6 km/h 96 % 0.25 mm 26.0 W/m2 OVC
13:36 14.9 °C 14.3 °C 1024.6 hPa SSE 11.1 km/h 11.1 km/h 96 % 0.25 mm 37.0 W/m2 OVC
13:41 15 °C 14.4 °C 1024.6 hPa South 6.4 km/h 6.4 km/h 96 % 0 mm 30.0 W/m2 OVC
13:46 15 °C 14.4 °C 1024.6 hPa West 5.6 km/h 5.6 km/h 96 % 0 mm 51.0 W/m2 OVC
13:51 15 °C 14.4 °C 1024.3 hPa WSW 3.7 km/h 3.7 km/h 96 % 0 mm 37.0 W/m2 OVC
13:56 14.9 °C 14.3 °C 1024.3 hPa South 3.2 km/h 3.2 km/h 96 % 0 mm 47.0 W/m2 OVC
14:01 14.9 °C 14.3 °C 1024.3 hPa WNW 3.7 km/h 3.7 km/h 96 % 0.25 mm 42.0 W/m2 -RA
14:06 14.9 °C 14.3 °C 1024.3 hPa SSE 7.4 km/h 7.4 km/h 96 % 0.51 mm 32.0 W/m2 -RA
14:11 14.8 °C 14.4 °C 1024.3 hPa South 5.6 km/h 5.6 km/h 97 % 1.02 mm 39.0 W/m2 -RA
14:16 14.8 °C 14.3 °C 1023.9 hPa South 5.6 km/h 5.6 km/h 97 % 1.27 mm 54.0 W/m2 -RA
14:21 14.7 °C 14.3 °C 1023.9 hPa SSE 7.4 km/h 7.4 km/h 97 % 1.52 mm 70.0 W/m2 -RA
14:26 14.7 °C 14.3 °C 1023.9 hPa South 11.1 km/h 11.1 km/h 97 % 1.52 mm 83.0 W/m2 -RA
14:31 14.8 °C 14.3 °C 1023.6 hPa South 9.3 km/h 9.3 km/h 97 % 1.52 mm 90.0 W/m2 -RA
14:36 14.8 °C 14.3 °C 1023.6 hPa NW 3.7 km/h 3.7 km/h 97 % 1.52 mm 67.0 W/m2 -RA
14:41 14.8 °C 14.4 °C 1023.6 hPa South 7.4 km/h 7.4 km/h 97 % 1.52 mm 58.0 W/m2 -RA
14:46 14.8 °C 14.4 °C 1023.6 hPa SE 3.2 km/h 3.2 km/h 97 % 1.78 mm 54.0 W/m2 -RA
14:51 14.8 °C 14.4 °C 1023.2 hPa SSE 7.4 km/h 7.4 km/h 97 % 1.78 mm 67.0 W/m2 -RA
14:56 14.9 °C 14.4 °C 1023.2 hPa SSE 7.4 km/h 7.4 km/h 97 % 1.78 mm 76.0 W/m2 -RA
15:01 14.9 °C 14.5 °C 1023.2 hPa South 5.6 km/h 5.6 km/h 97 % 1.52 mm 60.0 W/m2 -RA
15:06 15 °C 14.6 °C 1023.2 hPa South 3.7 km/h 3.7 km/h 97 % 1.27 mm 44.0 W/m2 -RA
15:11 15 °C 14.6 °C 1023.2 hPa South 5.6 km/h 5.6 km/h 97 % 0.76 mm 49.0 W/m2 -RA
15:16 15.1 °C 14.6 °C 1023.2 hPa South 5.6 km/h 5.6 km/h 97 % 0.51 mm 44.0 W/m2 -RA
15:21 15.1 °C 14.6 °C 1023.2 hPa South 3.7 km/h 3.7 km/h 97 % 0.25 mm 30.0 W/m2 -RA
15:26 15 °C 14.6 °C 1023.2 hPa South 3.2 km/h 3.2 km/h 97 % 0.25 mm 32.0 W/m2 -RA
15:31 15 °C 14.6 °C 1023.2 hPa SSE 7.4 km/h 7.4 km/h 97 % 0.25 mm 47.0 W/m2 -RA
15:36 15.1 °C 14.6 °C 1023.2 hPa South 7.4 km/h 7.4 km/h 97 % 0.25 mm 32.0 W/m2 -RA
15:41 15 °C 14.6 °C 1023.2 hPa West 9.3 km/h 9.3 km/h 97 % 0.25 mm 40.0 W/m2 -RA
15:46 15.1 °C 14.6 °C 1023.2 hPa South 5.6 km/h 5.6 km/h 97 % 0 mm 32.0 W/m2 -RA
15:51 15 °C 14.6 °C 1023.2 hPa SSE 7.4 km/h 7.4 km/h 97 % 0 mm 21.0 W/m2 -RA
15:56 15 °C 14.6 °C 1023.2 hPa South 5.6 km/h 5.6 km/h 97 % 0 mm 14.0 W/m2 -RA
16:01 15 °C 14.6 °C 1023.2 hPa South 3.7 km/h 3.7 km/h 97 % 0 mm 9.0 W/m2 -RA
16:06 14.9 °C 14.5 °C 1022.9 hPa South 7.4 km/h 7.4 km/h 97 % 0 mm 11.0 W/m2 -RA
16:11 14.9 °C 14.5 °C 1023.2 hPa SSE 8 km/h 8 km/h 97 % 0.25 mm 7.0 W/m2 -RA
16:16 14.9 °C 14.4 °C 1022.9 hPa South 9.3 km/h 9.3 km/h 97 % 0.25 mm 7.0 W/m2 -RA
16:21 14.9 °C 14.4 °C 1022.9 hPa NW 5.6 km/h 5.6 km/h 97 % 0.76 mm 7.0 W/m2 RA
16:26 14.8 °C 14.4 °C 1022.6 hPa SSE 8 km/h 8 km/h 97 % 1.02 mm 7.0 W/m2 RA
16:31 14.8 °C 14.4 °C 1022.6 hPa SSE 1.9 km/h 1.9 km/h 97 % 1.27 mm 9.0 W/m2 RA
16:36 14.8 °C 14.3 °C 1022.9 hPa South 3.2 km/h 3.2 km/h 97 % 1.78 mm 0.0 W/m2 RA
16:41 14.8 °C 14.3 °C 1022.9 hPa South 3.7 km/h 3.7 km/h 97 % 2.03 mm 0.0 W/m2 RA
16:46 14.8 °C 14.3 °C 1022.6 hPa South 5.6 km/h 5.6 km/h 97 % 3.3 mm 5.0 W/m2 RA
16:51 14.8 °C 14.3 °C 1022.6 hPa SSW 3.7 km/h 3.7 km/h 97 % 3.56 mm 0.0 W/m2 -RA
16:56 14.8 °C 14.4 °C 1022.6 hPa SSE 3.7 km/h 3.7 km/h 98 % 3.56 mm 0.0 W/m2 -RA
17:01 14.8 °C 14.4 °C 1022.6 hPa SW 5.6 km/h 5.6 km/h 98 % 4.06 mm 5.0 W/m2 -RA
17:06 14.7 °C 14.4 °C 1022.2 hPa South 3.7 km/h 3.7 km/h 98 % 4.06 mm 0.0 W/m2 -RA
17:11 14.7 °C 14.4 °C 1021.9 hPa SSE 6.4 km/h 6.4 km/h 98 % 3.81 mm 0.0 W/m2 -RA
17:16 14.7 °C 14.4 °C 1021.9 hPa SSE 11.1 km/h 11.1 km/h 98 % 4.06 mm 0.0 W/m2 -RA
17:21 14.7 °C 14.4 °C 1021.9 hPa SSE 5.6 km/h 5.6 km/h 98 % 3.56 mm 0.0 W/m2 -RA
17:26 14.8 °C 14.4 °C 1021.9 hPa SSW 13 km/h 13 km/h 98 % 3.3 mm 0.0 W/m2 -RA
17:31 14.8 °C 14.4 °C 1021.9 hPa South 7.4 km/h 7.4 km/h 98 % 3.05 mm 0.0 W/m2 -RA
17:36 14.8 °C 14.5 °C 1022.2 hPa NW 5.6 km/h 5.6 km/h 98 % 2.79 mm 0.0 W/m2 -RA
17:41 14.8 °C 14.5 °C 1022.2 hPa WSW 9.3 km/h 9.3 km/h 98 % 2.54 mm 0.0 W/m2 -RA
17:46 14.8 °C 14.5 °C 1022.2 hPa SSE 5.6 km/h 5.6 km/h 98 % 1.27 mm 0.0 W/m2 -RA
17:51 14.9 °C 14.6 °C 1022.2 hPa West 3.7 km/h 3.7 km/h 98 % 1.02 mm 0.0 W/m2 -RA
17:56 14.9 °C 14.6 °C 1022.2 hPa WNW 5.6 km/h 5.6 km/h 98 % 1.02 mm 0.0 W/m2 -RA
18:02 14.9 °C 14.6 °C 1022.2 hPa WSW 1.9 km/h 1.9 km/h 98 % 0.51 mm 0.0 W/m2 OVC
18:07 14.9 °C 14.6 °C 1022.2 hPa WNW 5.6 km/h 5.6 km/h 98 % 0.51 mm 0.0 W/m2 OVC
18:12 14.9 °C 14.6 °C 1022.6 hPa West 3.7 km/h 3.7 km/h 98 % 0.51 mm 0.0 W/m2 OVC
18:17 14.9 °C 14.6 °C 1022.2 hPa SSW 1.9 km/h 1.9 km/h 98 % 0.25 mm 0.0 W/m2 OVC
18:22 14.9 °C 14.6 °C 1022.2 hPa SE 5.6 km/h 5.6 km/h 98 % 0.25 mm 0.0 W/m2 OVC
18:26 15 °C 14.7 °C 1022.2 hPa South 5.6 km/h 5.6 km/h 98 % 0.51 mm 0.0 W/m2 RA
18:31 15 °C 14.7 °C 1022.2 hPa West 3.7 km/h 3.7 km/h 98 % 0.51 mm 0.0 W/m2 RA
18:36 15.1 °C 14.7 °C 1022.2 hPa WNW 7.4 km/h 7.4 km/h 98 % 0.51 mm 0.0 W/m2 RA
18:41 15.1 °C 14.8 °C 1022.2 hPa NW 7.4 km/h 7.4 km/h 98 % 0.51 mm 0.0 W/m2 RA
18:47 15.2 °C 14.8 °C 1022.2 hPa West 5.6 km/h 5.6 km/h 98 % 0.51 mm 0.0 W/m2 OVC
18:52 15.2 °C 14.8 °C 1022.2 hPa SW 5.6 km/h 5.6 km/h 98 % 0.51 mm 0.0 W/m2 OVC
18:57 15.2 °C 14.8 °C 1022.2 hPa WNW 5.6 km/h 5.6 km/h 98 % 0.51 mm 0.0 W/m2 OVC
19:01 15.2 °C 14.9 °C 1022.2 hPa ESE 1.9 km/h 1.9 km/h 98 % 0.51 mm 0.0 W/m2 OVC
19:07 15.2 °C 14.9 °C 1022.2 hPa West 3.7 km/h 3.7 km/h 98 % 0.51 mm 0.0 W/m2 OVC
19:12 15.3 °C 14.9 °C 1022.2 hPa WSW 5.6 km/h 5.6 km/h 98 % 0.51 mm 0.0 W/m2 OVC
19:17 15.3 °C 14.9 °C 1022.2 hPa West 5.6 km/h 5.6 km/h 98 % 0.51 mm 0.0 W/m2 OVC
19:22 15.3 °C 15 °C 1022.2 hPa ENE 11.1 km/h 11.1 km/h 98 % 0.51 mm 0.0 W/m2 OVC
19:27 15.3 °C 15 °C 1022.2 hPa NNW 5.6 km/h 5.6 km/h 98 % 0.25 mm 0.0 W/m2 OVC
19:33 15.4 °C 15.1 °C 1022.2 hPa NW 7.4 km/h 7.4 km/h 98 % 0 mm 0.0 W/m2 OVC
19:38 15.4 °C 15.1 °C 1022.2 hPa ESE 3.7 km/h 3.7 km/h 98 % 0 mm 0.0 W/m2 OVC
19:43 15.4 °C 15.1 °C 1022.2 hPa South 5.6 km/h 5.6 km/h 98 % 0 mm 0.0 W/m2 OVC
19:48 15.4 °C 15.1 °C 1022.2 hPa West 7.4 km/h 7.4 km/h 98 % 0 mm 0.0 W/m2 OVC
19:53 15.4 °C 15.1 °C 1022.2 hPa SSE 9.3 km/h 9.3 km/h 98 % 0 mm 0.0 W/m2 OVC
19:58 15.5 °C 15.2 °C 1022.2 hPa SSW 8 km/h 8 km/h 98 % 0 mm 0.0 W/m2 OVC
20:03 15.5 °C 15.2 °C 1022.2 hPa SE 11.1 km/h 11.1 km/h 98 % 0 mm 0.0 W/m2 OVC
20:08 15.5 °C 15.2 °C 1022.2 hPa West 3.7 km/h 3.7 km/h 98 % 0 mm 0.0 W/m2 OVC
20:13 15.5 °C 15.2 °C 1022.2 hPa WNW 5.6 km/h 5.6 km/h 98 % 0 mm 0.0 W/m2 OVC
20:18 15.6 °C 15.2 °C 1022.2 hPa NW 3.7 km/h 3.7 km/h 98 % 0 mm 0.0 W/m2 OVC
20:23 15.6 °C 15.2 °C 1022.2 hPa SE 7.4 km/h 7.4 km/h 98 % 0 mm 0.0 W/m2 OVC
20:28 15.6 °C 15.3 °C 1022.2 hPa WNW 5.6 km/h 5.6 km/h 98 % 0 mm 0.0 W/m2 OVC
20:33 15.6 °C 15.2 °C 1022.2 hPa West 5.6 km/h 5.6 km/h 98 % 0 mm 0.0 W/m2 OVC
20:38 15.6 °C 15.3 °C 1022.2 hPa WNW 5.6 km/h 5.6 km/h 98 % 0 mm 0.0 W/m2 OVC
20:43 15.6 °C 15.3 °C 1022.2 hPa SSE 7.4 km/h 7.4 km/h 98 % 0 mm 0.0 W/m2 OVC
20:48 15.6 °C 15.3 °C 1021.9 hPa SE 5.6 km/h 5.6 km/h 98 % 0 mm 0.0 W/m2 OVC
20:53 15.6 °C 15.3 °C 1021.9 hPa SW 7.4 km/h 7.4 km/h 98 % 0 mm 0.0 W/m2 OVC
20:58 15.7 °C 15.3 °C 1021.9 hPa Calm   0.5 km/h 98 % 0 mm 0.0 W/m2 OVC
21:03 15.7 °C 15.3 °C 1021.9 hPa SE 9.7 km/h 9.7 km/h 98 % 0 mm 0.0 W/m2 OVC
21:08 15.7 °C 15.3 °C 1021.9 hPa SSE 9.7 km/h 9.7 km/h 98 % 0 mm 0.0 W/m2 OVC
21:13 15.7 °C 15.3 °C 1021.9 hPa West 5.6 km/h 5.6 km/h 98 % 0 mm 0.0 W/m2 OVC
21:18 15.7 °C 15.4 °C 1022.2 hPa SW 3.7 km/h 3.7 km/h 98 % 0 mm 0.0 W/m2 OVC
21:23 15.7 °C 15.4 °C 1021.9 hPa SSE 7.4 km/h 7.4 km/h 98 % 0 mm 0.0 W/m2 OVC
21:28 15.8 °C 15.4 °C 1021.9 hPa South 7.4 km/h 7.4 km/h 98 % 0 mm 0.0 W/m2 OVC
21:33 15.8 °C 15.5 °C 1021.6 hPa South 5.6 km/h 5.6 km/h 98 % 0 mm 0.0 W/m2 OVC
21:38 15.8 °C 15.4 °C 1021.6 hPa SSW 4.8 km/h 4.8 km/h 98 % 0 mm 0.0 W/m2 OVC
21:43 15.8 °C 15.4 °C 1021.9 hPa West 5.6 km/h 5.6 km/h 98 % 0 mm 0.0 W/m2 OVC
21:48 15.8 °C 15.3 °C 1021.6 hPa SSE 3.7 km/h   97 % 0 mm 0.0 W/m2 OVC
21:53 15.8 °C 15.4 °C 1021.6 hPa SSE 3.7 km/h 3.7 km/h 98 % 0 mm 0.0 W/m2 OVC
21:58 15.8 °C 15.4 °C 1021.6 hPa West 7.4 km/h 7.4 km/h 98 % 0 mm 0.0 W/m2 OVC
22:03 15.8 °C 15.3 °C 1021.6 hPa West 5.6 km/h 5.6 km/h 97 % 0 mm 0.0 W/m2 OVC
22:08 15.9 °C 15.4 °C 1021.2 hPa SSE 1.9 km/h 1.9 km/h 97 % 0 mm 0.0 W/m2 OVC
22:13 15.8 °C 15.3 °C 1021.2 hPa WSW 7.4 km/h 7.4 km/h 97 % 0 mm 0.0 W/m2 OVC
22:18 15.9 °C 15.4 °C 1021.2 hPa SSE 5.6 km/h 5.6 km/h 97 % 0 mm 0.0 W/m2 OVC
22:23 15.9 °C 15.4 °C 1021.2 hPa WSW 5.6 km/h 5.6 km/h 97 % 0 mm 0.0 W/m2 OVC
22:28 15.9 °C 15.4 °C 1021.2 hPa WSW 5.6 km/h 5.6 km/h 97 % 0 mm 0.0 W/m2 OVC
22:33 16 °C 15.7 °C 1021.2 hPa WNW 6.4 km/h 6.4 km/h 98 % 0 mm 0.0 W/m2 OVC
22:38 16.1 °C 15.8 °C 1021.2 hPa West 5.6 km/h 5.6 km/h 98 % 0 mm 0.0 W/m2 OVC
22:43 16.1 °C 15.6 °C 1020.9 hPa SE 9.3 km/h 9.3 km/h 97 % 0 mm 0.0 W/m2 OVC
22:48 16.2 °C 15.7 °C 1020.9 hPa SE 7.4 km/h 7.4 km/h 97 % 0 mm 0.0 W/m2 OVC
22:53 16.2 °C 15.7 °C 1020.9 hPa WNW 9.3 km/h 9.3 km/h 97 % 0 mm 0.0 W/m2 OVC
22:58 16.3 °C 15.8 °C 1020.9 hPa SSW 13 km/h 13 km/h 97 % 0 mm 0.0 W/m2 OVC
23:03 16.3 °C 15.8 °C 1020.9 hPa NW 5.6 km/h 5.6 km/h 97 % 0 mm 0.0 W/m2 OVC
23:08 16.4 °C 15.9 °C 1020.9 hPa WNW 3.7 km/h 3.7 km/h 97 % 0 mm 0.0 W/m2 OVC
23:13 16.3 °C 15.8 °C 1020.9 hPa WNW 7.4 km/h 7.4 km/h 97 % 0 mm 0.0 W/m2 OVC
23:18 16.4 °C 15.9 °C 1021.2 hPa NNE 5.6 km/h 5.6 km/h 97 % 0 mm 0.0 W/m2 OVC
23:23 16.4 °C 15.9 °C 1020.9 hPa SW 3.7 km/h 3.7 km/h 97 % 0 mm 0.0 W/m2 OVC
23:28 16.4 °C 15.9 °C 1020.5 hPa NE 13 km/h 13 km/h 97 % 0 mm 0.0 W/m2 OVC
23:33 16.4 °C 15.9 °C 1020.5 hPa West 13 km/h 13 km/h 97 % 0 mm 0.0 W/m2 OVC
23:38 16.4 °C 15.9 °C 1020.5 hPa ESE 5.6 km/h 5.6 km/h 97 % 0 mm 0.0 W/m2 OVC
23:43 16.5 °C 16 °C 1020.5 hPa South 11.1 km/h 11.1 km/h 97 % 0 mm 0.0 W/m2 OVC
23:48 16.5 °C 16 °C 1020.5 hPa SSE 9.3 km/h 9.3 km/h 97 % 0 mm 0.0 W/m2 OVC
23:53 16.5 °C 16 °C 1020.5 hPa WNW 5.6 km/h 5.6 km/h 97 % 0 mm 0.0 W/m2 OVC
23:58 16.5 °C 16 °C 1020.5 hPa WSW 5.6 km/h 5.6 km/h 97 % 0.25 mm 0.0 W/m2 RA
Murfreesboro Weather Live
Compliments of Weather Underground - 2.25 mb